createdAt,value
2018-07-24T00:00:17.985Z,17.63
2018-07-24T00:02:46.182Z,17.43
2018-07-24T00:05:14.341Z,17.77
2018-07-24T00:07:42.559Z,17.57
2018-07-24T00:10:10.784Z,17.57
2018-07-24T00:12:39.058Z,17.57
2018-07-24T00:15:07.260Z,17.87
2018-07-24T00:17:35.814Z,17.63
2018-07-24T00:20:05.966Z,18.40
2018-07-24T00:22:34.399Z,17.60
2018-07-24T00:25:02.971Z,17.93
2018-07-24T00:27:31.066Z,18.17
2018-07-24T00:29:59.274Z,17.80
2018-07-24T00:32:28.148Z,18.60
2018-07-24T00:34:56.377Z,19.37
2018-07-24T00:37:24.744Z,20.87
2018-07-24T00:39:53.553Z,19.73
2018-07-24T00:42:21.724Z,18.03
2018-07-24T00:44:50.013Z,20.63
2018-07-24T00:47:18.528Z,22.73
2018-07-24T00:49:46.794Z,22.60
2018-07-24T00:52:15.036Z,20.80
2018-07-24T00:54:43.217Z,19.47
2018-07-24T00:57:11.720Z,20.67
2018-07-24T00:59:39.918Z,20.50
2018-07-24T01:02:11.064Z,22.03
2018-07-24T01:04:39.579Z,22.70
2018-07-24T01:07:07.752Z,21.33
2018-07-24T01:09:36.669Z,21.67
2018-07-24T01:12:05.268Z,21.50
2018-07-24T01:14:33.797Z,21.93
2018-07-24T01:17:02.090Z,20.87
2018-07-24T01:19:30.524Z,21.73
2018-07-24T01:21:59.439Z,21.40
2018-07-24T01:24:27.844Z,20.73
2018-07-24T01:26:56.720Z,20.73
2018-07-24T01:29:24.917Z,21.17
2018-07-24T01:31:53.135Z,20.60
2018-07-24T01:34:22.833Z,20.80
2018-07-24T01:36:51.264Z,20.67
2018-07-24T01:39:19.745Z,20.43
2018-07-24T01:41:47.918Z,20.20
2018-07-24T01:44:16.397Z,20.67
2018-07-24T01:46:44.595Z,21.70
2018-07-24T01:49:13.105Z,20.07
2018-07-24T01:51:41.569Z,20.50
2018-07-24T01:54:09.879Z,20.37
2018-07-24T01:56:38.084Z,21.60
2018-07-24T01:59:06.281Z,20.77
2018-07-24T02:01:34.746Z,20.10
2018-07-24T02:04:02.940Z,21.43
2018-07-24T02:06:31.188Z,21.30
2018-07-24T02:08:59.728Z,20.47
2018-07-24T02:11:27.900Z,21.47
2018-07-24T02:13:56.134Z,21.60
2018-07-24T02:16:24.433Z,21.50
2018-07-24T02:18:53.456Z,22.13
2018-07-24T02:21:21.700Z,21.57
2018-07-24T02:23:49.881Z,21.37
2018-07-24T02:26:18.425Z,20.83
2018-07-24T02:28:46.634Z,22.20
2018-07-24T02:31:14.881Z,21.80
2018-07-24T02:33:43.034Z,20.97
2018-07-24T02:36:11.244Z,21.43
2018-07-24T02:38:39.701Z,21.10
2018-07-24T02:41:08.220Z,20.93
2018-07-24T02:43:36.392Z,20.83
2018-07-24T02:46:04.858Z,21.83
2018-07-24T02:48:33.423Z,22.03
2018-07-24T02:51:04.005Z,22.50
2018-07-24T02:53:34.068Z,21.47
2018-07-24T02:56:02.253Z,21.33
2018-07-24T02:58:31.140Z,22.27
2018-07-24T03:00:59.651Z,23.40
2018-07-24T03:03:27.865Z,22.03
2018-07-24T03:05:56.060Z,24.23
2018-07-24T03:08:24.545Z,24.00
2018-07-24T03:10:52.794Z,24.67
2018-07-24T03:13:20.966Z,25.73
2018-07-24T03:15:49.116Z,27.37
2018-07-24T03:18:17.945Z,27.30
2018-07-24T03:20:46.474Z,26.63
2018-07-24T03:23:14.727Z,25.87
2018-07-24T03:25:43.219Z,27.90
2018-07-24T03:28:12.497Z,28.57
2018-07-24T03:30:40.712Z,29.27
2018-07-24T03:33:08.969Z,28.00
2018-07-24T03:35:37.274Z,28.97
2018-07-24T03:38:05.503Z,28.00
2018-07-24T03:40:34.211Z,30.40
2018-07-24T03:43:02.543Z,28.57
2018-07-24T03:45:31.006Z,30.30
2018-07-24T03:47:59.905Z,29.87
2018-07-24T03:50:28.292Z,30.57
2018-07-24T03:52:56.485Z,28.90
2018-07-24T03:55:24.681Z,28.53
2018-07-24T03:57:52.930Z,28.83
2018-07-24T04:00:21.501Z,28.67
2018-07-24T04:02:50.145Z,29.40
2018-07-24T04:05:18.869Z,30.83
2018-07-24T04:07:51.254Z,30.70
2018-07-24T04:10:20.802Z,30.63
2018-07-24T04:12:49.881Z,31.03
2018-07-24T04:15:18.073Z,31.47
2018-07-24T04:17:46.639Z,29.27
2018-07-24T04:20:14.861Z,30.47
2018-07-24T04:22:43.071Z,30.47
2018-07-24T04:25:11.180Z,30.10
2018-07-24T04:27:39.398Z,26.47
2018-07-24T04:30:07.903Z,25.80
2018-07-24T04:32:36.400Z,27.03
2018-07-24T04:35:04.727Z,27.33
2018-07-24T04:37:32.953Z,27.27
2018-07-24T04:40:01.547Z,27.30
2018-07-24T04:42:29.829Z,24.77
2018-07-24T04:44:58.077Z,23.13
2018-07-24T04:47:26.443Z,22.00
2018-07-24T04:49:57.620Z,23.30
2018-07-24T04:52:26.104Z,22.77
2018-07-24T04:54:54.333Z,23.33
2018-07-24T04:57:22.691Z,23.87
2018-07-24T04:59:50.977Z,22.47
2018-07-24T05:02:19.182Z,23.97
2018-07-24T05:04:47.410Z,23.93
2018-07-24T05:07:15.898Z,23.77
2018-07-24T05:09:44.909Z,24.43
2018-07-24T05:12:13.599Z,23.47
2018-07-24T05:14:41.899Z,23.03
2018-07-24T05:17:11.398Z,29.20
2018-07-24T05:19:39.916Z,23.27
2018-07-24T05:22:08.158Z,22.93
2018-07-24T05:24:36.689Z,23.70
2018-07-24T05:27:05.773Z,23.90
2018-07-24T05:29:34.118Z,22.27
2018-07-24T05:32:02.673Z,24.83
2018-07-24T05:34:31.409Z,24.43
2018-07-24T05:36:59.887Z,25.30
2018-07-24T05:39:28.947Z,24.93
2018-07-24T05:41:57.843Z,26.00
2018-07-24T05:44:26.533Z,25.17
2018-07-24T05:46:54.733Z,25.07
2018-07-24T05:49:23.340Z,25.37
2018-07-24T05:51:51.993Z,24.77
2018-07-24T05:54:21.042Z,24.30
2018-07-24T05:56:49.268Z,24.13
2018-07-24T05:59:20.543Z,24.33
2018-07-24T06:01:48.792Z,24.50
2018-07-24T06:04:16.965Z,23.40
2018-07-24T06:06:45.173Z,24.30
2018-07-24T06:09:13.386Z,23.80
2018-07-24T06:11:41.613Z,23.77
2018-07-24T06:14:10.188Z,23.00
2018-07-24T06:16:38.417Z,23.33
2018-07-24T06:19:06.703Z,21.40
2018-07-24T06:21:35.145Z,23.30
2018-07-24T06:24:03.354Z,22.90
2018-07-24T06:26:31.796Z,22.77
2018-07-24T06:28:59.903Z,22.27
2018-07-24T06:31:34.780Z,23.33
2018-07-24T06:34:02.998Z,23.30
2018-07-24T06:36:32.421Z,22.63
2018-07-24T06:39:01.003Z,43.53
2018-07-24T06:41:29.624Z,22.73
2018-07-24T06:43:57.793Z,21.30
2018-07-24T06:46:26.029Z,21.77
2018-07-24T06:48:54.195Z,23.23
2018-07-24T06:51:22.730Z,20.13
2018-07-24T06:53:51.257Z,22.00
2018-07-24T06:56:19.737Z,21.60
2018-07-24T06:58:48.068Z,20.87
2018-07-24T07:01:16.279Z,20.07
2018-07-24T07:03:44.566Z,23.20
2018-07-24T07:06:13.105Z,21.73
2018-07-24T07:08:42.048Z,34.27
2018-07-24T07:11:10.607Z,21.90
2018-07-24T07:13:38.785Z,21.53
2018-07-24T07:16:07.304Z,19.23
2018-07-24T07:18:35.765Z,18.80
2018-07-24T07:21:03.951Z,19.30
2018-07-24T07:23:32.205Z,21.17
2018-07-24T07:26:00.850Z,19.43
2018-07-24T07:28:29.582Z,19.10
2018-07-24T07:30:57.786Z,18.63
2018-07-24T07:33:26.266Z,18.83
2018-07-24T07:35:54.462Z,18.90
2018-07-24T07:38:22.718Z,18.20
2018-07-24T07:40:50.957Z,18.17
2018-07-24T07:43:19.431Z,16.73
2018-07-24T07:45:47.556Z,18.63
2018-07-24T07:48:15.778Z,18.03
2018-07-24T07:50:44.082Z,17.03
2018-07-24T07:53:12.326Z,17.63
2018-07-24T07:55:41.068Z,15.67
2018-07-24T07:58:09.306Z,16.23
2018-07-24T08:00:37.514Z,14.00
2018-07-24T08:03:05.875Z,14.43
2018-07-24T08:05:34.092Z,14.07
2018-07-24T08:08:02.736Z,16.63
2018-07-24T08:10:30.987Z,15.00
2018-07-24T08:12:59.155Z,17.50
2018-07-24T08:15:27.360Z,17.20
2018-07-24T08:17:55.606Z,15.37
2018-07-24T08:20:24.364Z,14.57
2018-07-24T08:22:52.709Z,13.50
2018-07-24T08:25:21.375Z,14.00
2018-07-24T08:27:51.544Z,15.60
2018-07-24T08:30:19.978Z,18.90
2018-07-24T08:32:48.210Z,14.30
2018-07-24T08:35:17.390Z,15.73
2018-07-24T08:37:45.917Z,13.27
2018-07-24T08:40:14.417Z,14.30
2018-07-24T08:42:42.961Z,11.50
2018-07-24T08:45:11.197Z,13.07
2018-07-24T08:47:44.399Z,11.60
2018-07-24T08:50:12.638Z,12.83
2018-07-24T08:52:42.685Z,11.10
2018-07-24T08:55:11.416Z,9.10
2018-07-24T08:57:39.444Z,9.17
2018-07-24T09:00:07.962Z,9.93
2018-07-24T09:02:36.306Z,9.97
2018-07-24T09:05:04.941Z,8.63
2018-07-24T09:07:33.872Z,8.90
2018-07-24T09:10:02.753Z,8.60
2018-07-24T09:12:34.153Z,7.97
2018-07-24T09:15:02.676Z,8.90
2018-07-24T09:17:30.969Z,8.77
2018-07-24T09:19:59.247Z,8.57
2018-07-24T09:22:27.809Z,8.63
2018-07-24T09:24:56.380Z,7.77
2018-07-24T09:27:24.856Z,8.47
2018-07-24T09:29:53.154Z,7.93
2018-07-24T09:32:21.426Z,7.63
2018-07-24T09:34:50.205Z,7.60
2018-07-24T09:37:18.994Z,7.73
2018-07-24T09:39:47.592Z,8.07
2018-07-24T09:42:16.421Z,7.70
2018-07-24T09:44:45.041Z,7.70
2018-07-24T09:47:13.483Z,7.23
2018-07-24T09:49:41.829Z,7.60
2018-07-24T09:52:10.036Z,7.00
2018-07-24T09:54:38.285Z,8.03
2018-07-24T09:57:06.669Z,6.67
2018-07-24T09:59:35.137Z,7.97
2018-07-24T10:02:04.207Z,7.40
2018-07-24T10:04:32.618Z,7.60
2018-07-24T10:07:00.960Z,7.40
2018-07-24T10:09:29.054Z,7.47
2018-07-24T10:11:57.332Z,7.23
2018-07-24T10:14:25.824Z,7.33
2018-07-24T10:16:54.790Z,7.90
2018-07-24T10:19:23.154Z,6.80
2018-07-24T10:21:51.558Z,8.63
2018-07-24T10:24:19.773Z,8.20
2018-07-24T10:26:48.493Z,7.93
2018-07-24T10:29:17.197Z,8.03
2018-07-24T10:31:45.703Z,7.40
2018-07-24T10:34:14.380Z,8.03
2018-07-24T10:36:43.505Z,7.33
2018-07-24T10:39:12.408Z,7.27
2018-07-24T10:41:41.239Z,6.83
2018-07-24T10:44:10.130Z,7.63
2018-07-24T10:46:38.956Z,7.87
2018-07-24T10:49:08.186Z,7.77
2018-07-24T10:51:36.407Z,6.90
2018-07-24T10:54:04.605Z,6.80
2018-07-24T10:56:33.523Z,7.93
2018-07-24T10:59:01.805Z,7.47
2018-07-24T11:01:30.014Z,7.20
2018-07-24T11:03:58.200Z,7.30
2018-07-24T11:06:27.445Z,6.57
2018-07-24T11:08:56.408Z,8.10
2018-07-24T11:11:24.675Z,7.43
2018-07-24T11:13:53.321Z,6.83
2018-07-24T11:16:21.793Z,6.77
2018-07-24T11:18:50.424Z,7.30
2018-07-24T11:21:19.603Z,7.07
2018-07-24T11:23:48.290Z,7.53
2018-07-24T11:26:17.110Z,9.67
2018-07-24T11:28:45.612Z,6.70
2018-07-24T11:31:14.676Z,7.63
2018-07-24T11:33:42.942Z,7.17
2018-07-24T11:36:11.230Z,7.07
2018-07-24T11:38:39.825Z,7.50
2018-07-24T11:41:08.737Z,7.13
2018-07-24T11:43:37.497Z,6.47
2018-07-24T11:46:05.721Z,7.37
2018-07-24T11:48:35.693Z,6.97
2018-07-24T11:51:04.306Z,7.23
2018-07-24T11:53:32.742Z,6.90
2018-07-24T11:56:01.249Z,7.13
2018-07-24T11:58:29.633Z,7.07
2018-07-24T12:00:58.040Z,7.73
2018-07-24T12:03:26.348Z,6.47
2018-07-24T12:05:55.419Z,6.60
2018-07-24T12:08:24.693Z,7.10
2018-07-24T12:10:53.400Z,6.70
2018-07-24T12:13:22.317Z,6.80
2018-07-24T12:15:51.366Z,7.17
2018-07-24T12:18:19.928Z,6.50
2018-07-24T12:20:48.437Z,7.80
2018-07-24T12:23:16.621Z,7.00
2018-07-24T12:25:45.463Z,6.20
2018-07-24T12:28:14.117Z,6.73
2018-07-24T12:30:42.427Z,6.93
2018-07-24T12:33:11.384Z,8.33
2018-07-24T12:35:39.543Z,6.93
2018-07-24T12:38:07.766Z,6.30
2018-07-24T12:40:35.986Z,6.50
2018-07-24T12:43:04.297Z,7.73
2018-07-24T12:45:32.508Z,6.77
2018-07-24T12:48:01.013Z,6.00
2018-07-24T12:50:29.709Z,6.37
2018-07-24T12:52:58.469Z,6.50
2018-07-24T12:55:27.412Z,6.20
2018-07-24T12:57:56.113Z,6.43
2018-07-24T13:00:24.441Z,5.77
2018-07-24T13:02:52.700Z,5.87
2018-07-24T13:05:22.360Z,5.77
2018-07-24T13:07:51.430Z,5.70
2018-07-24T13:10:20.747Z,6.40
2018-07-24T13:12:48.965Z,6.13
2018-07-24T13:15:18.272Z,6.33
2018-07-24T13:17:46.962Z,6.90
2018-07-24T13:20:15.704Z,7.50
2018-07-24T13:22:44.307Z,8.43
2018-07-24T13:25:13.234Z,7.13
2018-07-24T13:27:42.237Z,6.83
2018-07-24T13:30:11.059Z,6.40
2018-07-24T13:32:39.993Z,5.93
2018-07-24T13:35:08.833Z,6.57
2018-07-24T13:37:37.388Z,6.27
2018-07-24T13:40:05.665Z,6.53
2018-07-24T13:42:33.893Z,6.00
2018-07-24T13:45:02.496Z,7.60
2018-07-24T13:47:30.963Z,6.07
2018-07-24T13:49:59.529Z,6.53
2018-07-24T13:52:27.796Z,5.50
2018-07-24T13:54:56.325Z,5.50
2018-07-24T13:57:24.520Z,5.33
2018-07-24T13:59:52.900Z,5.23
2018-07-24T14:02:21.236Z,5.53
2018-07-24T14:04:50.583Z,5.13
2018-07-24T14:07:19.104Z,5.97
2018-07-24T14:09:47.379Z,6.17
2018-07-24T14:12:16.176Z,7.10
2018-07-24T14:14:46.052Z,11.13
2018-07-24T14:17:14.571Z,9.70
2018-07-24T14:19:44.871Z,5.80
2018-07-24T14:22:13.157Z,6.03
2018-07-24T14:24:41.673Z,6.60
2018-07-24T14:27:10.017Z,6.23
2018-07-24T14:29:38.459Z,5.50
2018-07-24T14:32:07.227Z,6.03
2018-07-24T14:34:36.932Z,6.07
2018-07-24T14:37:05.501Z,5.20
2018-07-24T14:39:34.421Z,5.47
2018-07-24T14:42:03.354Z,6.43
2018-07-24T14:44:31.759Z,5.50
2018-07-24T14:47:02.082Z,5.67
2018-07-24T14:49:33.400Z,5.50
2018-07-24T14:52:02.449Z,5.50
2018-07-24T14:54:31.244Z,5.50
2018-07-24T14:56:59.390Z,5.77
2018-07-24T14:59:28.517Z,5.13
2018-07-24T15:01:57.075Z,5.90
2018-07-24T15:04:26.156Z,6.10
2018-07-24T15:06:55.485Z,5.17
2018-07-24T15:09:25.770Z,5.10
2018-07-24T15:11:54.527Z,5.30
2018-07-24T15:14:23.499Z,5.83
2018-07-24T15:16:52.133Z,6.57
2018-07-24T15:19:20.917Z,5.50
2018-07-24T15:21:49.396Z,5.70
2018-07-24T15:24:17.981Z,6.57
2018-07-24T15:26:47.271Z,5.90
2018-07-24T15:29:15.774Z,6.63
2018-07-24T15:31:44.185Z,6.10
2018-07-24T15:34:12.721Z,8.70
2018-07-24T15:36:41.255Z,5.90
2018-07-24T15:39:12.195Z,15.83
2018-07-24T15:41:41.304Z,7.63
2018-07-24T15:44:10.361Z,9.50
2018-07-24T15:46:38.910Z,14.63
2018-07-24T15:49:07.219Z,10.00
2018-07-24T15:51:36.283Z,6.47
2018-07-24T15:54:05.175Z,5.87
2018-07-24T15:56:33.527Z,6.03
2018-07-24T15:59:01.865Z,5.63
2018-07-24T16:01:30.392Z,5.00
2018-07-24T16:03:58.536Z,5.77
2018-07-24T16:06:27.069Z,5.30
2018-07-24T16:08:55.592Z,5.40
2018-07-24T16:11:23.927Z,8.23
2018-07-24T16:13:55.723Z,6.07
2018-07-24T16:16:24.473Z,6.33
2018-07-24T16:18:53.062Z,5.50
2018-07-24T16:21:21.924Z,6.70
2018-07-24T16:23:50.484Z,5.53
2018-07-24T16:26:18.728Z,5.17
2018-07-24T16:28:47.524Z,5.30
2018-07-24T16:31:15.973Z,4.60
2018-07-24T16:33:46.939Z,4.52
2018-07-24T16:36:15.349Z,4.90
2018-07-24T16:38:44.148Z,5.13
2018-07-24T16:41:12.530Z,5.10
2018-07-24T16:43:40.726Z,5.00
2018-07-24T16:46:09.843Z,5.77
2018-07-24T16:48:38.314Z,5.13
2018-07-24T16:51:07.501Z,6.23
2018-07-24T16:53:37.240Z,6.60
2018-07-24T16:56:06.132Z,6.73
2018-07-24T16:58:35.158Z,5.23
2018-07-24T17:01:03.446Z,5.13
2018-07-24T17:03:31.923Z,6.07
2018-07-24T17:06:00.824Z,6.40
2018-07-24T17:08:29.132Z,6.23
2018-07-24T17:10:57.958Z,5.90
2018-07-24T17:13:26.234Z,6.17
2018-07-24T17:15:54.453Z,4.93
2018-07-24T17:18:22.968Z,4.80
2018-07-24T17:20:51.281Z,5.40
2018-07-24T17:23:20.416Z,5.80
2018-07-24T17:25:49.043Z,5.57
2018-07-24T17:28:17.217Z,6.30
2018-07-24T17:30:46.062Z,5.37
2018-07-24T17:33:14.340Z,5.27
2018-07-24T17:35:43.007Z,5.77
2018-07-24T17:38:11.167Z,5.40
2018-07-24T17:40:39.662Z,5.50
2018-07-24T17:43:08.123Z,7.27
2018-07-24T17:45:36.426Z,8.27
2018-07-24T17:48:05.438Z,5.63
2018-07-24T17:50:34.186Z,5.77
2018-07-24T17:53:02.917Z,7.10
2018-07-24T17:55:32.101Z,7.77
2018-07-24T17:58:00.594Z,5.97
2018-07-24T18:00:28.989Z,6.03
2018-07-24T18:02:57.653Z,5.80
2018-07-24T18:05:26.438Z,8.77
2018-07-24T18:07:54.635Z,6.63
2018-07-24T18:10:23.641Z,8.77
2018-07-24T18:12:51.942Z,7.20
2018-07-24T18:15:20.488Z,7.87
2018-07-24T18:17:49.349Z,7.23
2018-07-24T18:20:17.517Z,7.10
2018-07-24T18:22:45.847Z,6.40
2018-07-24T18:25:14.256Z,6.93
2018-07-24T18:27:43.635Z,6.10
2018-07-24T18:30:12.405Z,7.03
2018-07-24T18:32:41.268Z,7.60
2018-07-24T18:35:09.476Z,7.83
2018-07-24T18:37:38.010Z,7.90
2018-07-24T18:40:06.734Z,7.80
2018-07-24T18:42:35.220Z,7.50
2018-07-24T18:45:04.931Z,8.27
2018-07-24T18:47:33.443Z,7.63
2018-07-24T18:50:02.661Z,7.73
2018-07-24T18:52:33.356Z,7.60
2018-07-24T18:55:01.592Z,13.73
2018-07-24T18:57:29.829Z,8.67
2018-07-24T18:59:58.061Z,9.17
2018-07-24T19:02:26.522Z,8.40
2018-07-24T19:04:54.906Z,9.73
2018-07-24T19:07:29.764Z,7.90
2018-07-24T19:09:58.084Z,8.20
2018-07-24T19:12:26.920Z,13.60
2018-07-24T19:20:56.673Z,11.83
2018-07-24T19:23:25.000Z,10.87
2018-07-24T19:25:54.640Z,9.63
2018-07-24T19:28:23.088Z,8.87
2018-07-24T19:30:51.922Z,10.90
2018-07-24T19:33:20.182Z,11.57
2018-07-24T19:35:48.769Z,10.30
2018-07-24T19:38:17.472Z,10.40
2018-07-24T19:40:45.692Z,9.83
2018-07-24T19:43:14.716Z,14.93
2018-07-24T19:45:42.975Z,9.93
2018-07-24T19:48:12.486Z,11.27
2018-07-24T19:50:40.970Z,12.30
2018-07-24T19:53:09.552Z,11.37
2018-07-24T19:55:39.012Z,10.87
2018-07-24T19:58:07.654Z,10.00
2018-07-24T20:00:38.107Z,10.33
2018-07-24T20:03:07.580Z,10.13
2018-07-24T20:05:35.943Z,10.33
2018-07-24T20:08:04.571Z,11.83
2018-07-24T20:10:32.932Z,10.00
2018-07-24T20:13:01.456Z,11.70
2018-07-24T20:15:30.834Z,14.80
2018-07-24T20:17:59.143Z,12.83
2018-07-24T20:20:27.673Z,16.13
2018-07-24T20:22:55.935Z,14.27
2018-07-24T20:25:24.348Z,12.97
2018-07-24T20:27:52.720Z,11.87
2018-07-24T20:30:21.555Z,18.97
2018-07-24T20:32:50.389Z,24.20
2018-07-24T20:35:22.045Z,11.30
2018-07-24T20:37:50.265Z,10.27
2018-07-24T20:40:18.434Z,10.93
2018-07-24T20:42:46.959Z,32.73
2018-07-24T20:45:15.444Z,11.30
2018-07-24T20:47:44.360Z,12.23
2018-07-24T20:50:13.305Z,10.73
2018-07-24T20:52:43.010Z,10.87
2018-07-24T20:55:11.714Z,19.27
2018-07-24T20:57:39.856Z,12.43
2018-07-24T21:00:08.072Z,13.23
2018-07-24T21:02:36.888Z,8.63
2018-07-24T21:05:06.048Z,8.50
2018-07-24T21:07:34.633Z,8.37
2018-07-24T21:10:05.204Z,10.67
2018-07-24T21:12:33.342Z,12.23
2018-07-24T21:15:01.872Z,17.77
2018-07-24T21:17:31.997Z,12.10
2018-07-24T21:20:02.154Z,10.60
2018-07-24T21:22:31.087Z,9.87
2018-07-24T21:25:01.552Z,11.97
2018-07-24T21:27:30.102Z,11.67
2018-07-24T21:29:58.875Z,11.07
2018-07-24T21:32:27.103Z,9.23
2018-07-24T21:34:55.201Z,9.10
2018-07-24T21:37:23.482Z,9.03
2018-07-24T21:39:53.789Z,9.93
2018-07-24T21:42:23.724Z,11.60
2018-07-24T21:44:54.804Z,11.27
2018-07-24T21:47:25.298Z,11.07
2018-07-24T21:49:53.525Z,12.37
2018-07-24T21:52:22.585Z,13.03
2018-07-24T21:54:50.968Z,14.07
2018-07-24T21:57:19.409Z,11.50
2018-07-24T21:59:47.903Z,10.63
2018-07-24T22:02:16.569Z,11.60
2018-07-24T22:04:45.109Z,12.57
2018-07-24T22:07:13.981Z,10.37
2018-07-24T22:09:42.165Z,12.07
2018-07-24T22:12:10.466Z,12.00
2018-07-24T22:14:39.105Z,10.30
2018-07-24T22:17:07.632Z,11.80
2018-07-24T22:19:36.111Z,11.87
2018-07-24T22:22:04.605Z,26.33
2018-07-24T22:24:33.842Z,13.30
2018-07-24T22:27:04.085Z,11.23
2018-07-24T22:29:34.766Z,11.23
2018-07-24T22:32:05.779Z,11.63
2018-07-24T22:34:37.324Z,11.30
2018-07-24T22:37:06.367Z,11.87
2018-07-24T22:39:34.771Z,10.80
2018-07-24T22:42:03.115Z,12.37
2018-07-24T22:44:31.624Z,11.40
2018-07-24T22:47:03.417Z,11.17
2018-07-24T22:49:34.250Z,11.03
2018-07-24T22:52:04.688Z,11.53
2018-07-24T22:54:33.172Z,11.33
2018-07-24T22:57:01.650Z,11.53
2018-07-24T22:59:30.224Z,11.13
2018-07-24T23:02:00.498Z,11.10
2018-07-24T23:04:28.760Z,10.40
2018-07-24T23:06:56.957Z,10.97
2018-07-24T23:09:27.074Z,11.07
2018-07-24T23:11:57.404Z,11.73
2018-07-24T23:14:25.799Z,12.03
2018-07-24T23:16:56.173Z,10.97
2018-07-24T23:19:25.912Z,11.07
2018-07-24T23:21:56.475Z,10.53
2018-07-24T23:24:24.708Z,11.00
2018-07-24T23:26:52.960Z,11.13
2018-07-24T23:29:21.620Z,11.40
2018-07-24T23:31:49.839Z,10.87
2018-07-24T23:34:18.426Z,11.27
2018-07-24T23:36:46.736Z,10.50
2018-07-24T23:39:15.859Z,11.23
2018-07-24T23:41:44.385Z,10.70
2018-07-24T23:44:12.666Z,10.03
2018-07-24T23:46:40.876Z,10.03
2018-07-24T23:49:09.938Z,9.80
2018-07-24T23:51:38.455Z,10.03
2018-07-24T23:54:08.571Z,10.57
2018-07-24T23:56:39.212Z,9.13
2018-07-24T23:59:07.852Z,10.07
